createdAt,value
2022-09-02T00:02:46.261Z,1.67
2022-09-02T00:07:51.887Z,1.70
2022-09-02T00:12:57.465Z,1.53
2022-09-02T00:18:03.447Z,1.43
2022-09-02T00:23:09.488Z,1.50
2022-09-02T00:28:16.564Z,1.50
2022-09-02T00:33:22.323Z,1.17
2022-09-02T00:38:28.661Z,1.50
2022-09-02T00:43:43.239Z,1.37
2022-09-02T00:49:00.989Z,1.23
2022-09-02T00:54:07.665Z,1.20
2022-09-02T00:59:16.502Z,1.27
2022-09-02T01:04:22.840Z,3.50
2022-09-02T01:09:28.741Z,1.60
2022-09-02T01:14:35.298Z,1.27
2022-09-02T01:19:44.007Z,1.00
2022-09-02T01:24:49.897Z,1.17
2022-09-02T01:29:58.669Z,1.27
2022-09-02T01:35:04.461Z,1.30
2022-09-02T01:40:12.569Z,1.17
2022-09-02T01:45:19.911Z,1.47
2022-09-02T01:50:26.606Z,0.90
2022-09-02T01:55:33.077Z,1.13
2022-09-02T02:00:39.108Z,1.30
2022-09-02T02:05:45.351Z,1.30
2022-09-02T02:10:52.040Z,1.00
2022-09-02T02:15:59.046Z,1.13
2022-09-02T02:21:04.905Z,1.20
2022-09-02T02:26:11.298Z,1.17
2022-09-02T02:31:18.968Z,0.93
2022-09-02T02:36:25.446Z,1.13
2022-09-02T02:41:32.660Z,1.50
2022-09-02T02:46:39.186Z,1.10
2022-09-02T02:51:45.674Z,1.50
2022-09-02T02:56:51.434Z,1.40
2022-09-02T03:01:57.785Z,1.30
2022-09-02T03:07:07.059Z,1.33
2022-09-02T03:12:12.736Z,1.27
2022-09-02T03:17:19.426Z,1.40
2022-09-02T03:22:25.420Z,1.37
2022-09-02T03:27:31.500Z,1.63
2022-09-02T03:32:38.376Z,1.50
2022-09-02T03:37:44.059Z,1.40
2022-09-02T03:42:50.934Z,1.30
2022-09-02T03:47:57.022Z,1.10
2022-09-02T03:53:04.627Z,1.53
2022-09-02T03:58:10.412Z,1.20
2022-09-02T04:03:16.633Z,1.20
2022-09-02T04:08:24.834Z,1.43
2022-09-02T04:13:31.390Z,1.20
2022-09-02T04:18:37.062Z,1.63
2022-09-02T04:23:43.543Z,1.33
2022-09-02T04:28:50.672Z,1.47
2022-09-02T04:33:57.183Z,1.70
2022-09-02T04:39:03.527Z,1.33
2022-09-02T04:44:10.930Z,1.23
2022-09-02T04:49:18.531Z,1.50
2022-09-02T04:54:24.965Z,1.73
2022-09-02T04:59:31.306Z,1.50
2022-09-02T05:04:41.943Z,1.63
2022-09-02T05:09:50.504Z,1.80
2022-09-02T05:14:59.318Z,1.87
2022-09-02T05:20:09.314Z,1.60
2022-09-02T05:25:15.103Z,1.63
2022-09-02T05:30:22.650Z,1.50
2022-09-02T05:35:29.871Z,1.80
2022-09-02T05:40:38.627Z,1.90
2022-09-02T05:45:45.491Z,1.90
2022-09-02T05:50:57.410Z,1.93
2022-09-02T05:55:59.138Z,2.00
2022-09-02T06:01:11.744Z,1.67
2022-09-02T06:06:18.783Z,1.80
2022-09-02T06:11:25.052Z,1.50
2022-09-02T06:16:32.153Z,1.43
2022-09-02T06:21:40.344Z,1.43
2022-09-02T06:26:46.289Z,1.43
2022-09-02T06:31:52.527Z,1.40
2022-09-02T06:36:59.539Z,1.43
2022-09-02T06:42:05.504Z,1.70
2022-09-02T06:47:12.703Z,1.50
2022-09-02T06:52:18.588Z,1.60
2022-09-02T06:57:31.505Z,1.60
2022-09-02T07:02:35.402Z,1.23
2022-09-02T07:07:45.132Z,1.27
2022-09-02T07:12:51.999Z,1.60
2022-09-02T07:17:57.671Z,1.10
2022-09-02T07:23:04.969Z,1.10
2022-09-02T07:28:13.270Z,1.47
2022-09-02T07:33:19.735Z,1.47
2022-09-02T07:38:25.552Z,1.87
2022-09-02T07:43:33.268Z,1.53
2022-09-02T07:48:39.864Z,1.10
2022-09-02T07:53:45.732Z,1.30
2022-09-02T07:58:51.723Z,0.97
2022-09-02T08:03:59.463Z,0.77
2022-09-02T08:09:10.599Z,0.80
2022-09-02T08:14:19.430Z,0.70
2022-09-02T08:19:27.551Z,1.00
2022-09-02T08:24:33.919Z,1.00
2022-09-02T08:29:40.088Z,0.80
2022-09-02T08:34:46.058Z,0.90
2022-09-02T08:39:51.688Z,0.80
2022-09-02T08:45:00.233Z,0.73
2022-09-02T08:50:08.908Z,0.93
2022-09-02T08:55:24.657Z,0.70
2022-09-02T09:00:34.011Z,0.70
2022-09-02T09:05:47.164Z,0.60
2022-09-02T09:11:15.763Z,0.80
2022-09-02T09:16:42.015Z,0.60
2022-09-02T09:21:47.618Z,0.60
2022-09-02T09:26:55.362Z,0.77
2022-09-02T09:32:02.046Z,0.73
2022-09-02T09:37:07.598Z,0.70
2022-09-02T09:42:16.183Z,0.83
2022-09-02T09:47:26.185Z,0.60
2022-09-02T09:52:32.333Z,0.80
2022-09-02T09:57:38.305Z,0.90
2022-09-02T10:02:52.889Z,0.67
2022-09-02T10:08:02.039Z,1.00
2022-09-02T10:13:28.936Z,0.83
2022-09-02T10:18:37.527Z,0.80
2022-09-02T10:23:55.790Z,0.70
2022-09-02T10:29:17.130Z,0.80
2022-09-02T10:34:31.603Z,0.60
2022-09-02T10:39:42.907Z,0.77
2022-09-02T10:44:59.052Z,0.60
2022-09-02T10:50:10.817Z,0.80
2022-09-02T10:55:45.063Z,0.80
2022-09-02T11:00:53.709Z,0.60
2022-09-02T11:06:08.050Z,0.60
2022-09-02T11:11:22.912Z,0.40
2022-09-02T11:21:52.513Z,0.67
2022-09-02T11:27:01.352Z,0.53
2022-09-02T11:32:29.651Z,0.40
2022-09-02T11:37:53.722Z,0.60
2022-09-02T11:43:21.941Z,0.80
2022-09-02T11:48:53.424Z,0.60
2022-09-02T11:54:01.645Z,0.60
2022-09-02T11:59:10.966Z,0.50
2022-09-02T12:09:50.504Z,0.60
2022-09-02T12:14:59.033Z,0.70
2022-09-02T12:20:12.683Z,0.63
2022-09-02T12:25:28.592Z,0.63
2022-09-02T12:31:04.405Z,0.63
2022-09-02T12:36:11.296Z,0.90
2022-09-02T12:41:22.870Z,0.60
2022-09-02T12:46:49.819Z,0.50
2022-09-02T12:52:05.060Z,0.50
2022-09-02T12:57:12.405Z,0.60
2022-09-02T13:02:26.750Z,0.50
2022-09-02T13:08:02.326Z,0.70
2022-09-02T13:13:34.653Z,0.80
2022-09-02T13:18:43.293Z,0.73
2022-09-02T13:24:06.978Z,0.80
2022-09-02T13:29:30.444Z,0.60
2022-09-02T13:34:35.724Z,0.73
2022-09-02T13:39:41.262Z,0.60
2022-09-02T13:44:47.335Z,0.67
2022-09-02T13:49:55.157Z,0.60
2022-09-02T13:55:01.165Z,0.73
2022-09-02T14:00:08.228Z,1.10
2022-09-02T14:05:21.127Z,0.80
2022-09-02T14:10:29.274Z,0.73
2022-09-02T14:15:35.428Z,0.73
2022-09-02T14:20:43.840Z,0.50
2022-09-02T14:26:00.460Z,0.80
2022-09-02T14:31:08.509Z,0.97
2022-09-02T14:36:21.470Z,0.90
2022-09-02T14:41:30.253Z,0.70
2022-09-02T14:46:38.863Z,0.70
2022-09-02T14:51:50.467Z,0.67
2022-09-02T14:56:56.271Z,0.90
2022-09-02T15:02:02.244Z,0.70
2022-09-02T15:07:07.711Z,0.80
2022-09-02T15:12:20.114Z,0.70
2022-09-02T15:17:25.495Z,0.60
2022-09-02T15:22:31.003Z,0.90
2022-09-02T15:27:38.276Z,0.60
2022-09-02T15:32:45.570Z,0.80
2022-09-02T15:37:52.484Z,0.73
2022-09-02T15:42:58.049Z,0.60
2022-09-02T15:48:05.805Z,0.67
2022-09-02T15:53:11.406Z,0.60
2022-09-02T15:58:17.072Z,0.70
2022-09-02T16:03:22.785Z,0.50
2022-09-02T16:08:28.435Z,0.50
2022-09-02T16:13:35.203Z,0.60
2022-09-02T16:18:42.614Z,0.60
2022-09-02T16:23:49.604Z,0.60
2022-09-02T16:29:01.401Z,0.50
2022-09-02T16:34:15.154Z,0.90
2022-09-02T16:39:21.350Z,1.17
2022-09-02T16:44:28.256Z,1.27
2022-09-02T16:49:35.041Z,1.70
2022-09-02T16:54:41.381Z,2.23
2022-09-02T16:59:47.095Z,2.40
2022-09-02T17:04:52.684Z,2.23
2022-09-02T17:09:59.249Z,2.33
2022-09-02T17:15:05.328Z,2.70
2022-09-02T17:20:12.751Z,1.73
2022-09-02T17:25:18.911Z,1.40
2022-09-02T17:30:24.437Z,1.10
2022-09-02T17:35:30.503Z,0.97
2022-09-02T17:40:54.243Z,1.10
2022-09-02T17:46:08.734Z,0.83
2022-09-02T17:51:15.205Z,1.57
2022-09-02T17:56:28.330Z,1.00
2022-09-02T18:01:37.126Z,1.10
2022-09-02T18:06:45.450Z,0.87
2022-09-02T18:11:51.185Z,0.90
2022-09-02T18:17:02.804Z,0.90
2022-09-02T18:22:29.553Z,1.00
2022-09-02T18:27:53.246Z,1.20
2022-09-02T18:33:04.645Z,1.00
2022-09-02T18:38:28.814Z,1.30
2022-09-02T18:44:01.554Z,0.97
2022-09-02T18:49:09.623Z,1.30
2022-09-02T18:54:21.489Z,1.00
2022-09-02T18:59:40.472Z,1.50
2022-09-02T19:04:46.036Z,1.20
2022-09-02T19:09:52.000Z,1.20
2022-09-02T19:14:57.559Z,1.10
2022-09-02T19:20:07.840Z,1.07
2022-09-02T19:25:19.754Z,1.07
2022-09-02T19:30:27.598Z,1.00
2022-09-02T19:35:36.049Z,1.57
2022-09-02T19:40:41.575Z,1.50
2022-09-02T19:45:49.029Z,1.13
2022-09-02T19:50:56.176Z,1.27
2022-09-02T19:56:01.990Z,1.60
2022-09-02T20:01:08.439Z,1.20
2022-09-02T20:06:14.097Z,1.40
2022-09-02T20:11:20.907Z,1.50
2022-09-02T20:16:29.754Z,1.30
2022-09-02T20:21:46.671Z,1.70
2022-09-02T20:27:01.748Z,1.50
2022-09-02T20:32:36.827Z,1.40
2022-09-02T20:37:57.013Z,1.67
2022-09-02T20:43:22.259Z,1.43
2022-09-02T20:48:53.103Z,2.27
2022-09-02T20:54:36.561Z,1.80
2022-09-02T20:59:51.056Z,1.60
2022-09-02T21:04:59.614Z,1.90
2022-09-02T21:10:16.093Z,1.93
2022-09-02T21:15:33.734Z,1.90
2022-09-02T21:21:06.737Z,1.63
2022-09-02T21:26:33.192Z,1.87
2022-09-02T21:31:57.391Z,2.03
2022-09-02T21:37:04.972Z,1.77
2022-09-02T21:42:22.549Z,2.23
2022-09-02T21:47:47.689Z,1.93
2022-09-02T21:53:02.770Z,1.63
2022-09-02T21:58:11.412Z,1.80
2022-09-02T22:03:22.089Z,2.10
2022-09-02T22:08:45.773Z,1.80
2022-09-02T22:13:51.450Z,1.90
2022-09-02T22:19:07.550Z,2.47
2022-09-02T22:24:15.413Z,2.90
2022-09-02T22:29:27.500Z,1.77
2022-09-02T22:34:36.387Z,1.50
2022-09-02T22:39:53.234Z,1.80
2022-09-02T22:45:31.143Z,1.60
2022-09-02T22:50:57.739Z,1.57
2022-09-02T22:56:11.592Z,1.63
2022-09-02T23:01:48.443Z,1.47
2022-09-02T23:06:56.553Z,1.60
2022-09-02T23:12:25.230Z,1.40
2022-09-02T23:17:36.833Z,1.67
2022-09-02T23:23:22.001Z,1.50
2022-09-02T23:28:42.237Z,1.40
2022-09-02T23:34:10.447Z,1.40
2022-09-02T23:39:25.366Z,1.40
2022-09-02T23:44:32.265Z,1.20
2022-09-02T23:49:41.257Z,2.03
2022-09-02T23:55:17.953Z,1.70
